createdAt,value
2019-05-05T00:00:07.053Z,75.37
2019-05-05T00:03:22.249Z,65.85
2019-05-05T00:06:24.985Z,42.73
2019-05-05T00:09:26.877Z,46.05
2019-05-05T00:12:36.426Z,42.17
2019-05-05T00:15:56.471Z,28.07
2019-05-05T00:18:58.221Z,40.12
2019-05-05T00:21:59.509Z,44.80
2019-05-05T00:25:00.965Z,52.60
2019-05-05T00:28:04.893Z,47.60
2019-05-05T00:31:06.027Z,49.35
2019-05-05T00:34:07.502Z,53.35
2019-05-05T00:37:08.783Z,69.22
2019-05-05T00:40:10.286Z,59.00
2019-05-05T00:43:11.550Z,77.10
2019-05-05T00:46:16.479Z,38.15
2019-05-05T00:49:17.953Z,46.95
2019-05-05T00:52:20.444Z,45.85
2019-05-05T00:55:21.730Z,52.50
2019-05-05T00:58:24.985Z,46.90
2019-05-05T01:01:28.176Z,52.98
2019-05-05T01:04:48.105Z,46.20
2019-05-05T01:07:49.481Z,59.63
2019-05-05T01:10:50.838Z,48.35
2019-05-05T01:13:52.216Z,46.02
2019-05-05T01:16:54.615Z,54.88
2019-05-05T01:20:03.711Z,54.25
2019-05-05T01:22:59.449Z,54.03
2019-05-05T01:26:00.718Z,51.53
2019-05-05T01:29:05.292Z,47.58
2019-05-05T01:32:08.626Z,57.08
2019-05-05T01:35:10.434Z,65.37
2019-05-05T01:38:16.754Z,73.22
2019-05-05T01:41:31.929Z,69.12
2019-05-05T01:44:35.113Z,69.65
2019-05-05T01:47:36.464Z,64.45
2019-05-05T01:50:38.202Z,61.60
2019-05-05T01:53:39.479Z,90.50
2019-05-05T01:56:40.945Z,98.85
2019-05-05T01:59:44.586Z,92.53
2019-05-05T02:02:45.721Z,91.40
2019-05-05T02:05:46.999Z,88.82
2019-05-05T02:08:48.457Z,87.42
2019-05-05T02:11:50.161Z,83.05
2019-05-05T02:14:51.814Z,81.95
2019-05-05T02:17:54.959Z,67.87
2019-05-05T02:20:59.805Z,72.35
2019-05-05T02:24:01.099Z,67.50
2019-05-05T02:27:02.390Z,64.47
2019-05-05T02:30:16.561Z,64.60
2019-05-05T02:33:19.434Z,63.78
2019-05-05T02:36:21.636Z,60.23
2019-05-05T02:39:22.971Z,52.58
2019-05-05T02:42:25.164Z,68.37
2019-05-05T02:46:14.344Z,57.08
2019-05-05T02:49:15.438Z,52.27
2019-05-05T02:52:16.778Z,50.35
2019-05-05T02:55:18.237Z,72.05
2019-05-05T02:58:19.529Z,56.13
2019-05-05T03:01:28.874Z,70.42
2019-05-05T03:04:30.370Z,67.87
2019-05-05T03:07:31.641Z,68.57
2019-05-05T03:10:33.986Z,62.88
2019-05-05T03:13:35.786Z,60.33
2019-05-05T03:16:37.277Z,62.75
2019-05-05T03:19:38.567Z,57.43
2019-05-05T03:22:40.119Z,59.55
2019-05-05T03:25:41.395Z,62.73
2019-05-05T03:28:46.697Z,64.50
2019-05-05T03:31:48.198Z,66.85
2019-05-05T03:34:49.471Z,63.75
2019-05-05T03:37:51.634Z,52.93
2019-05-05T03:40:55.045Z,58.65
2019-05-05T03:44:04.862Z,51.90
2019-05-05T03:47:06.426Z,53.50
2019-05-05T03:50:09.103Z,50.73
2019-05-05T03:53:10.377Z,53.02
2019-05-05T03:56:11.678Z,52.60
2019-05-05T03:59:14.116Z,56.80
2019-05-05T04:02:26.965Z,49.88
2019-05-05T04:05:34.035Z,45.08
2019-05-05T04:08:35.653Z,49.00
2019-05-05T04:11:36.926Z,46.45
2019-05-05T04:14:38.581Z,45.48
2019-05-05T04:17:44.122Z,43.87
2019-05-05T04:20:45.182Z,47.20
2019-05-05T04:23:46.477Z,63.42
2019-05-05T04:26:47.949Z,72.12
2019-05-05T04:29:49.329Z,67.10
2019-05-05T04:32:50.809Z,65.67
2019-05-05T04:35:52.082Z,54.53
2019-05-05T04:38:54.579Z,51.08
2019-05-05T04:41:56.234Z,45.12
2019-05-05T04:44:57.520Z,41.63
2019-05-05T04:48:09.764Z,46.33
2019-05-05T04:51:13.985Z,50.23
2019-05-05T04:54:19.125Z,52.95
2019-05-05T04:57:20.402Z,55.20
2019-05-05T05:00:24.031Z,52.17
2019-05-05T05:03:34.664Z,54.30
2019-05-05T05:06:38.218Z,53.80
2019-05-05T05:09:39.606Z,61.70
2019-05-05T05:12:43.432Z,58.98
2019-05-05T05:15:44.736Z,60.28
2019-05-05T05:18:46.181Z,58.02
2019-05-05T05:21:58.468Z,63.60
2019-05-05T05:24:51.281Z,61.50
2019-05-05T05:27:53.656Z,63.00
2019-05-05T05:30:54.992Z,62.53
2019-05-05T05:33:56.321Z,60.30
2019-05-05T05:36:57.906Z,54.80
2019-05-05T05:40:07.554Z,56.85
2019-05-05T05:43:13.977Z,63.27
2019-05-05T05:46:26.230Z,52.75
2019-05-05T05:49:39.058Z,51.70
2019-05-05T05:52:40.506Z,50.03
2019-05-05T05:55:41.968Z,50.03
2019-05-05T05:58:44.208Z,46.70
2019-05-05T06:01:45.870Z,45.05
2019-05-05T06:04:47.464Z,42.10
2019-05-05T06:07:49.200Z,45.58
2019-05-05T06:10:50.497Z,43.42
2019-05-05T06:13:51.959Z,47.73
2019-05-05T06:16:53.940Z,41.98
2019-05-05T06:19:55.707Z,41.95
2019-05-05T06:22:56.973Z,48.20
2019-05-05T06:25:58.563Z,44.75
2019-05-05T06:28:59.835Z,43.35
2019-05-05T06:32:01.504Z,41.15
2019-05-05T06:35:03.756Z,45.95
2019-05-05T06:38:05.373Z,47.38
2019-05-05T06:41:20.934Z,45.38
2019-05-05T06:47:41.635Z,44.20
2019-05-05T06:50:43.798Z,43.75
2019-05-05T06:53:45.114Z,41.13
2019-05-05T06:56:46.413Z,37.13
2019-05-05T06:59:47.815Z,33.30
2019-05-05T07:02:49.171Z,33.95
2019-05-05T07:05:53.762Z,30.77
2019-05-05T07:08:54.735Z,31.27
2019-05-05T07:11:56.399Z,29.05
2019-05-05T07:14:57.673Z,27.77
2019-05-05T07:17:59.472Z,29.42
2019-05-05T07:21:00.706Z,27.93
2019-05-05T07:24:03.959Z,23.32
2019-05-05T07:27:05.494Z,23.40
2019-05-05T07:30:07.352Z,28.90
2019-05-05T07:33:08.977Z,20.97
2019-05-05T07:36:29.029Z,21.75
2019-05-05T07:39:30.913Z,22.20
2019-05-05T07:42:34.680Z,25.40
2019-05-05T07:45:36.051Z,20.60
2019-05-05T07:48:37.846Z,18.62
2019-05-05T07:51:40.828Z,21.70
2019-05-05T07:54:43.598Z,20.12
2019-05-05T07:57:45.482Z,19.37
2019-05-05T08:00:48.880Z,18.48
2019-05-05T08:03:50.328Z,19.25
2019-05-05T08:06:53.703Z,24.50
2019-05-05T08:09:55.028Z,17.82
2019-05-05T08:12:56.425Z,14.70
2019-05-05T08:16:00.217Z,17.17
2019-05-05T08:19:13.789Z,17.25
2019-05-05T08:22:17.251Z,15.93
2019-05-05T08:25:36.168Z,17.50
2019-05-05T08:28:38.646Z,18.87
2019-05-05T08:31:47.818Z,16.50
2019-05-05T08:34:59.747Z,14.38
2019-05-05T08:37:54.228Z,15.25
2019-05-05T08:40:56.106Z,16.85
2019-05-05T08:43:57.466Z,14.70
2019-05-05T08:47:00.574Z,15.18
2019-05-05T08:50:04.471Z,16.32
2019-05-05T08:53:08.571Z,17.48
2019-05-05T08:56:09.986Z,16.02
2019-05-05T08:59:11.449Z,14.20
2019-05-05T09:02:14.979Z,14.33
2019-05-05T09:05:16.549Z,12.47
2019-05-05T09:08:17.938Z,14.65
2019-05-05T09:11:19.428Z,14.00
2019-05-05T09:14:20.813Z,15.85
2019-05-05T09:17:24.255Z,15.80
2019-05-05T09:20:25.798Z,26.68
2019-05-05T09:23:28.178Z,23.83
2019-05-05T09:26:37.450Z,16.85
2019-05-05T09:29:43.955Z,22.10
2019-05-05T09:32:45.989Z,21.52
2019-05-05T09:35:47.929Z,11.63
2019-05-05T09:38:49.494Z,12.90
2019-05-05T09:41:51.177Z,12.00
2019-05-05T09:44:54.161Z,13.45
2019-05-05T09:47:55.748Z,19.17
2019-05-05T09:50:57.443Z,14.03
2019-05-05T09:54:10.997Z,15.40
2019-05-05T09:57:04.507Z,17.02
2019-05-05T10:00:08.085Z,14.55
2019-05-05T10:03:09.771Z,14.60
2019-05-05T10:06:14.109Z,13.60
2019-05-05T10:09:15.320Z,16.62
2019-05-05T10:12:16.954Z,13.88
2019-05-05T10:15:18.774Z,17.50
2019-05-05T10:18:20.089Z,15.10
2019-05-05T10:21:21.898Z,16.37
2019-05-05T10:24:30.643Z,15.80
2019-05-05T10:27:41.526Z,16.32
2019-05-05T10:30:32.416Z,13.45
2019-05-05T10:33:36.788Z,18.17
2019-05-05T10:36:39.818Z,17.90
2019-05-05T10:39:43.983Z,13.85
2019-05-05T10:42:51.333Z,15.40
2019-05-05T10:45:55.544Z,13.72
2019-05-05T10:48:59.769Z,15.40
2019-05-05T10:52:01.048Z,14.93
2019-05-05T10:55:05.641Z,15.43
2019-05-05T10:58:08.070Z,14.18
2019-05-05T11:01:14.531Z,15.00
2019-05-05T11:04:16.004Z,21.70
2019-05-05T11:07:17.803Z,12.10
2019-05-05T11:10:24.732Z,14.58
2019-05-05T11:13:27.849Z,19.60
2019-05-05T11:16:32.483Z,15.78
2019-05-05T11:19:39.738Z,13.05
2019-05-05T11:22:46.717Z,14.20
2019-05-05T11:25:50.151Z,11.80
2019-05-05T11:28:56.522Z,14.30
2019-05-05T11:32:01.096Z,12.93
2019-05-05T11:35:04.958Z,12.43
2019-05-05T11:38:07.057Z,10.98
2019-05-05T11:41:09.907Z,15.80
2019-05-05T11:44:12.255Z,12.75
2019-05-05T11:47:16.047Z,14.53
2019-05-05T11:50:18.110Z,11.85
2019-05-05T11:53:20.834Z,10.68
2019-05-05T11:56:23.097Z,11.12
2019-05-05T11:59:24.483Z,11.97
2019-05-05T12:02:25.933Z,16.15
2019-05-05T12:05:28.441Z,15.43
2019-05-05T12:08:30.034Z,13.20
2019-05-05T12:11:31.689Z,13.85
2019-05-05T12:14:34.832Z,12.63
2019-05-05T12:17:37.195Z,12.63
2019-05-05T12:20:39.395Z,15.48
2019-05-05T12:23:44.493Z,13.10
2019-05-05T12:26:59.063Z,12.70
2019-05-05T12:34:16.717Z,16.35
2019-05-05T12:37:19.669Z,14.87
2019-05-05T12:40:22.299Z,13.78
2019-05-05T12:43:25.210Z,19.23
2019-05-05T12:46:33.701Z,13.80
2019-05-05T12:49:35.867Z,15.03
2019-05-05T12:52:37.702Z,14.60
2019-05-05T12:55:41.878Z,17.87
2019-05-05T12:58:45.879Z,13.70
2019-05-05T13:01:49.262Z,11.60
2019-05-05T13:04:51.155Z,11.08
2019-05-05T13:07:53.409Z,12.95
2019-05-05T13:10:55.689Z,18.73
2019-05-05T13:13:57.779Z,10.85
2019-05-05T13:16:59.557Z,12.58
2019-05-05T13:20:05.467Z,12.15
2019-05-05T13:23:18.283Z,12.10
2019-05-05T13:26:28.643Z,14.85
2019-05-05T13:32:35.141Z,10.85
2019-05-05T13:35:38.747Z,11.05
2019-05-05T13:38:40.574Z,8.78
2019-05-05T13:41:44.873Z,11.20
2019-05-05T13:49:17.192Z,8.13
2019-05-05T13:52:19.415Z,10.25
2019-05-05T13:55:24.117Z,9.35
2019-05-05T13:58:25.957Z,9.80
2019-05-05T14:01:30.983Z,8.35
2019-05-05T14:04:34.617Z,8.68
2019-05-05T14:07:36.572Z,10.98
2019-05-05T14:10:38.192Z,12.88
2019-05-05T14:13:40.637Z,5.00
2019-05-05T14:16:44.675Z,5.30
2019-05-05T14:20:01.139Z,8.95
2019-05-05T14:22:55.434Z,6.03
2019-05-05T14:25:57.310Z,7.15
2019-05-05T14:28:59.657Z,7.72
2019-05-05T14:32:02.572Z,4.05
2019-05-05T14:39:09.285Z,6.28
2019-05-05T14:42:11.575Z,6.62
2019-05-05T14:45:15.343Z,6.28
2019-05-05T14:48:20.143Z,5.35
2019-05-05T14:51:25.125Z,6.53
2019-05-05T14:54:28.309Z,8.85
2019-05-05T14:57:30.790Z,12.10
2019-05-05T15:00:34.880Z,8.88
2019-05-05T15:03:38.685Z,16.77
2019-05-05T15:06:44.078Z,6.42
2019-05-05T15:09:52.324Z,6.50
2019-05-05T15:12:57.953Z,7.33
2019-05-05T15:15:59.519Z,8.55
2019-05-05T15:19:03.772Z,5.22
2019-05-05T15:22:05.371Z,6.37
2019-05-05T15:25:08.123Z,12.35
2019-05-05T15:28:10.977Z,14.53
2019-05-05T15:31:12.784Z,9.00
2019-05-05T15:34:14.564Z,13.30
2019-05-05T15:37:16.217Z,13.22
2019-05-05T15:40:17.749Z,10.60
2019-05-05T15:43:19.400Z,8.55
2019-05-05T15:46:20.705Z,3.90
2019-05-05T15:49:22.497Z,7.75
2019-05-05T15:52:24.367Z,5.78
2019-05-05T15:55:26.811Z,11.70
2019-05-05T15:58:28.286Z,6.65
2019-05-05T16:01:30.367Z,13.65
2019-05-05T16:04:34.160Z,5.45
2019-05-05T16:07:36.348Z,4.92
2019-05-05T16:10:37.767Z,6.05
2019-05-05T16:13:39.117Z,5.08
2019-05-05T16:16:46.974Z,5.00
2019-05-05T16:19:55.820Z,7.20
2019-05-05T16:23:18.086Z,7.05
2019-05-05T16:26:21.820Z,9.45
2019-05-05T16:29:24.040Z,8.35
2019-05-05T16:32:26.001Z,8.10
2019-05-05T16:35:27.963Z,10.70
2019-05-05T16:38:34.276Z,10.30
2019-05-05T16:41:36.725Z,11.43
2019-05-05T16:44:41.112Z,10.53
2019-05-05T16:47:44.392Z,5.78
2019-05-05T16:50:49.881Z,10.75
2019-05-05T16:53:56.585Z,5.42
2019-05-05T16:56:59.243Z,8.05
2019-05-05T17:00:01.803Z,6.92
2019-05-05T17:03:04.287Z,5.10
2019-05-05T17:06:08.674Z,17.10
2019-05-05T17:09:10.541Z,8.40
2019-05-05T17:12:14.112Z,9.03
2019-05-05T17:15:23.753Z,10.68
2019-05-05T17:18:35.232Z,10.45
2019-05-05T17:24:46.583Z,11.70
2019-05-05T17:27:51.243Z,6.33
2019-05-05T17:30:54.357Z,4.62
2019-05-05T17:33:58.242Z,5.00
2019-05-05T17:37:01.204Z,7.22
2019-05-05T17:40:13.590Z,5.30
2019-05-05T17:43:24.858Z,5.33
2019-05-05T17:46:35.851Z,6.03
2019-05-05T17:49:58.963Z,7.85
2019-05-05T17:53:04.927Z,6.22
2019-05-05T17:56:08.823Z,6.80
2019-05-05T18:03:27.327Z,7.37
2019-05-05T18:06:40.333Z,7.37
2019-05-05T18:09:58.571Z,6.87
2019-05-05T18:13:03.645Z,6.67
2019-05-05T18:16:08.991Z,5.03
2019-05-05T18:19:10.709Z,6.55
2019-05-05T18:22:13.943Z,6.50
2019-05-05T18:25:15.776Z,6.37
2019-05-05T18:28:20.113Z,6.45
2019-05-05T18:31:20.937Z,5.67
2019-05-05T18:34:23.590Z,9.63
2019-05-05T18:37:26.503Z,6.58
2019-05-05T18:40:28.721Z,5.90
2019-05-05T18:43:51.079Z,4.83
2019-05-05T18:47:15.676Z,6.85
2019-05-05T18:50:16.954Z,7.05
2019-05-05T18:53:18.743Z,7.70
2019-05-05T18:56:20.534Z,6.03
2019-05-05T18:59:24.032Z,6.90
2019-05-05T19:02:30.114Z,5.03
2019-05-05T19:09:04.556Z,6.25
2019-05-05T19:12:10.127Z,7.53
2019-05-05T19:15:13.617Z,9.43
2019-05-05T19:18:15.344Z,5.45
2019-05-05T19:21:24.757Z,7.35
2019-05-05T19:24:26.354Z,4.87
2019-05-05T19:27:30.299Z,6.53
2019-05-05T19:30:35.723Z,4.50
2019-05-05T19:33:36.782Z,6.85
2019-05-05T19:36:40.205Z,11.05
2019-05-05T19:39:42.581Z,4.65
2019-05-05T19:42:46.335Z,3.98
2019-05-05T19:45:48.585Z,10.15
2019-05-05T19:49:14.730Z,5.87
2019-05-05T19:52:16.249Z,5.90
2019-05-05T19:55:19.001Z,5.40
2019-05-05T19:58:20.583Z,5.00
2019-05-05T20:01:34.187Z,7.15
2019-05-05T20:04:25.307Z,8.80
2019-05-05T20:07:27.982Z,10.82
2019-05-05T20:10:29.797Z,10.25
2019-05-05T20:13:32.111Z,6.10
2019-05-05T20:16:35.521Z,7.17
2019-05-05T20:19:43.755Z,6.33
2019-05-05T20:22:46.546Z,5.95
2019-05-05T20:25:47.988Z,8.08
2019-05-05T20:28:49.605Z,7.22
2019-05-05T20:31:51.529Z,11.18
2019-05-05T20:34:54.791Z,6.35
2019-05-05T20:37:58.096Z,4.95
2019-05-05T20:41:10.148Z,5.87
2019-05-05T20:44:13.814Z,13.20
2019-05-05T20:47:15.024Z,9.58
2019-05-05T20:50:16.300Z,16.35
2019-05-05T20:53:17.756Z,7.97
2019-05-05T20:56:19.158Z,13.30
2019-05-05T20:59:28.295Z,21.55
2019-05-05T21:02:24.390Z,9.08
2019-05-05T21:05:27.023Z,9.23
2019-05-05T21:08:29.545Z,7.20
2019-05-05T21:11:30.921Z,6.05
2019-05-05T21:14:35.416Z,8.08
2019-05-05T21:17:35.510Z,8.93
2019-05-05T21:20:36.737Z,9.98
2019-05-05T21:23:40.354Z,8.55
2019-05-05T21:26:49.906Z,7.58
2019-05-05T21:29:51.481Z,5.17
2019-05-05T21:32:54.701Z,5.42
2019-05-05T21:35:55.970Z,7.40
2019-05-05T21:38:57.475Z,6.87
2019-05-05T21:41:58.765Z,7.87
2019-05-05T21:45:00.214Z,7.53
2019-05-05T21:48:01.474Z,6.62
2019-05-05T21:51:19.893Z,6.37
2019-05-05T21:54:39.957Z,7.60
2019-05-05T21:58:01.410Z,8.35
2019-05-05T22:01:05.086Z,6.53
2019-05-05T22:04:06.454Z,9.58
2019-05-05T22:07:08.272Z,6.28
2019-05-05T22:10:09.904Z,7.50
2019-05-05T22:13:14.111Z,6.65
2019-05-05T22:16:15.207Z,7.78
2019-05-05T22:19:18.388Z,6.15
2019-05-05T22:22:21.734Z,9.25
2019-05-05T22:25:23.086Z,5.17
2019-05-05T22:28:26.410Z,7.95
2019-05-05T22:31:28.487Z,6.30
2019-05-05T22:34:29.812Z,11.65
2019-05-05T22:37:31.297Z,5.83
2019-05-05T22:40:34.654Z,7.42
2019-05-05T22:43:36.257Z,6.35
2019-05-05T22:46:37.812Z,5.15
2019-05-05T22:49:40.047Z,6.15
2019-05-05T22:52:41.658Z,6.35
2019-05-05T22:55:44.281Z,6.12
2019-05-05T22:58:45.561Z,5.42
2019-05-05T23:01:47.056Z,6.30
2019-05-05T23:04:54.544Z,6.28
2019-05-05T23:07:56.561Z,7.53
2019-05-05T23:10:57.834Z,4.65
2019-05-05T23:14:18.506Z,5.22
2019-05-05T23:17:30.597Z,7.92
2019-05-05T23:20:44.669Z,5.10
2019-05-05T23:23:56.626Z,4.67
2019-05-05T23:26:58.106Z,6.97
2019-05-05T23:29:59.365Z,4.80
2019-05-05T23:33:00.907Z,6.22
2019-05-05T23:36:04.090Z,5.25
2019-05-05T23:39:07.449Z,5.78
2019-05-05T23:42:08.882Z,8.03
2019-05-05T23:45:10.305Z,6.40
2019-05-05T23:48:11.572Z,5.00
2019-05-05T23:51:14.008Z,6.15
2019-05-05T23:54:15.448Z,4.87
2019-05-05T23:57:16.818Z,6.70
